sensor_id;sensor_type;location;lat;lon;timestamp;P1;durP1;ratioP1;P2;durP2;ratioP2
53714;SDS011;39608;55.630;37.864;2023-03-31T00:03:36;4.25;;;2.70;;
53714;SDS011;39608;55.630;37.864;2023-03-31T00:08:42;3.55;;;2.95;;
53714;SDS011;39608;55.630;37.864;2023-03-31T00:13:45;2.50;;;2.22;;
53714;SDS011;39608;55.630;37.864;2023-03-31T00:18:48;5.32;;;2.80;;
53714;SDS011;39608;55.630;37.864;2023-03-31T00:23:51;3.00;;;2.60;;
53714;SDS011;39608;55.630;37.864;2023-03-31T00:28:54;3.00;;;2.63;;
53714;SDS011;39608;55.630;37.864;2023-03-31T00:33:59;5.85;;;2.80;;
53714;SDS011;39608;55.630;37.864;2023-03-31T00:39:02;2.90;;;2.60;;
53714;SDS011;39608;55.630;37.864;2023-03-31T00:44:08;2.57;;;2.37;;
53714;SDS011;39608;55.630;37.864;2023-03-31T00:49:16;3.33;;;2.53;;
53714;SDS011;39608;55.630;37.864;2023-03-31T00:54:23;7.88;;;2.85;;
53714;SDS011;39608;55.630;37.864;2023-03-31T00:59:29;3.53;;;2.75;;
53714;SDS011;39608;55.630;37.864;2023-03-31T01:04:34;3.70;;;2.35;;
53714;SDS011;39608;55.630;37.864;2023-03-31T01:14:42;3.10;;;1.90;;
53714;SDS011;39608;55.630;37.864;2023-03-31T01:19:51;3.75;;;2.33;;
53714;SDS011;39608;55.630;37.864;2023-03-31T01:25:31;2.10;;;1.90;;
53714;SDS011;39608;55.630;37.864;2023-03-31T01:42:15;2.38;;;2.17;;
53714;SDS011;39608;55.630;37.864;2023-03-31T01:47:25;2.28;;;2.08;;
53714;SDS011;39608;55.630;37.864;2023-03-31T01:52:40;1.65;;;1.55;;
53714;SDS011;39608;55.630;37.864;2023-03-31T01:57:49;5.03;;;2.42;;
53714;SDS011;39608;55.630;37.864;2023-03-31T02:02:56;2.85;;;2.20;;
53714;SDS011;39608;55.630;37.864;2023-03-31T02:08:04;3.08;;;2.53;;
53714;SDS011;39608;55.630;37.864;2023-03-31T02:13:14;3.10;;;2.00;;
53714;SDS011;39608;55.630;37.864;2023-03-31T02:18:20;2.33;;;2.00;;
53714;SDS011;39608;55.630;37.864;2023-03-31T02:23:27;2.20;;;1.77;;
53714;SDS011;39608;55.630;37.864;2023-03-31T02:28:34;2.45;;;2.20;;
53714;SDS011;39608;55.630;37.864;2023-03-31T02:33:36;2.90;;;2.17;;
53714;SDS011;39608;55.630;37.864;2023-03-31T02:38:40;3.28;;;2.33;;
53714;SDS011;39608;55.630;37.864;2023-03-31T02:43:45;2.35;;;1.90;;
53714;SDS011;39608;55.630;37.864;2023-03-31T02:48:48;3.15;;;1.98;;
53714;SDS011;39608;55.630;37.864;2023-03-31T02:53:56;1.92;;;1.70;;
53714;SDS011;39608;55.630;37.864;2023-03-31T02:59:25;1.60;;;1.38;;
53714;SDS011;39608;55.630;37.864;2023-03-31T03:04:49;1.70;;;1.60;;
53714;SDS011;39608;55.630;37.864;2023-03-31T03:10:03;1.40;;;1.27;;
53714;SDS011;39608;55.630;37.864;2023-03-31T03:15:11;1.65;;;1.55;;
53714;SDS011;39608;55.630;37.864;2023-03-31T03:20:18;3.40;;;1.63;;
53714;SDS011;39608;55.630;37.864;2023-03-31T03:25:21;2.13;;;1.65;;
53714;SDS011;39608;55.630;37.864;2023-03-31T03:30:25;4.40;;;1.52;;
53714;SDS011;39608;55.630;37.864;2023-03-31T03:35:27;1.50;;;1.40;;
53714;SDS011;39608;55.630;37.864;2023-03-31T03:40:29;1.63;;;1.52;;
53714;SDS011;39608;55.630;37.864;2023-03-31T03:45:32;1.95;;;1.75;;
53714;SDS011;39608;55.630;37.864;2023-03-31T03:50:35;2.20;;;2.00;;
53714;SDS011;39608;55.630;37.864;2023-03-31T03:55:37;1.60;;;1.50;;
53714;SDS011;39608;55.630;37.864;2023-03-31T04:00:41;2.08;;;1.90;;
53714;SDS011;39608;55.630;37.864;2023-03-31T04:05:45;4.20;;;2.55;;
53714;SDS011;39608;55.630;37.864;2023-03-31T04:10:49;6.85;;;2.00;;
53714;SDS011;39608;55.630;37.864;2023-03-31T04:15:52;4.57;;;2.35;;
53714;SDS011;39608;55.630;37.864;2023-03-31T04:20:54;2.25;;;2.08;;
53714;SDS011;39608;55.630;37.864;2023-03-31T04:26:04;2.65;;;2.15;;
53714;SDS011;39608;55.630;37.864;2023-03-31T04:31:09;3.50;;;2.50;;
53714;SDS011;39608;55.630;37.864;2023-03-31T04:36:14;1.57;;;1.47;;
53714;SDS011;39608;55.630;37.864;2023-03-31T04:41:17;2.28;;;2.08;;
53714;SDS011;39608;55.630;37.864;2023-03-31T04:46:21;2.95;;;2.28;;
53714;SDS011;39608;55.630;37.864;2023-03-31T04:51:23;5.60;;;2.20;;
53714;SDS011;39608;55.630;37.864;2023-03-31T04:56:25;2.53;;;1.98;;
53714;SDS011;39608;55.630;37.864;2023-03-31T05:01:29;2.05;;;1.85;;
53714;SDS011;39608;55.630;37.864;2023-03-31T05:06:32;5.28;;;2.80;;
53714;SDS011;39608;55.630;37.864;2023-03-31T05:11:34;3.50;;;2.50;;
53714;SDS011;39608;55.630;37.864;2023-03-31T05:16:38;5.57;;;3.10;;
53714;SDS011;39608;55.630;37.864;2023-03-31T05:21:41;4.45;;;3.10;;
53714;SDS011;39608;55.630;37.864;2023-03-31T05:26:43;9.52;;;3.25;;
53714;SDS011;39608;55.630;37.864;2023-03-31T05:31:50;4.28;;;3.00;;
53714;SDS011;39608;55.630;37.864;2023-03-31T05:36:53;3.97;;;3.08;;
53714;SDS011;39608;55.630;37.864;2023-03-31T05:41:55;7.70;;;3.33;;
53714;SDS011;39608;55.630;37.864;2023-03-31T05:46:58;13.88;;;3.97;;
53714;SDS011;39608;55.630;37.864;2023-03-31T05:52:00;3.92;;;3.58;;
53714;SDS011;39608;55.630;37.864;2023-03-31T05:57:02;4.03;;;3.25;;
53714;SDS011;39608;55.630;37.864;2023-03-31T06:02:06;5.10;;;4.10;;
53714;SDS011;39608;55.630;37.864;2023-03-31T06:07:09;7.95;;;3.80;;
53714;SDS011;39608;55.630;37.864;2023-03-31T06:12:11;5.68;;;4.43;;
53714;SDS011;39608;55.630;37.864;2023-03-31T06:17:14;6.68;;;3.85;;
53714;SDS011;39608;55.630;37.864;2023-03-31T06:22:16;5.88;;;3.33;;
53714;SDS011;39608;55.630;37.864;2023-03-31T06:27:18;4.72;;;3.78;;
53714;SDS011;39608;55.630;37.864;2023-03-31T06:32:22;4.90;;;3.92;;
53714;SDS011;39608;55.630;37.864;2023-03-31T06:37:24;4.40;;;3.70;;
53714;SDS011;39608;55.630;37.864;2023-03-31T06:42:26;4.57;;;3.70;;
53714;SDS011;39608;55.630;37.864;2023-03-31T06:47:29;10.50;;;4.13;;
53714;SDS011;39608;55.630;37.864;2023-03-31T06:52:31;10.65;;;4.65;;
53714;SDS011;39608;55.630;37.864;2023-03-31T06:57:33;10.93;;;3.95;;
53714;SDS011;39608;55.630;37.864;2023-03-31T07:02:38;6.05;;;4.03;;
53714;SDS011;39608;55.630;37.864;2023-03-31T07:07:40;13.80;;;4.25;;
53714;SDS011;39608;55.630;37.864;2023-03-31T07:12:42;10.57;;;4.20;;
53714;SDS011;39608;55.630;37.864;2023-03-31T07:17:46;7.38;;;4.45;;
53714;SDS011;39608;55.630;37.864;2023-03-31T07:22:50;5.38;;;3.67;;
53714;SDS011;39608;55.630;37.864;2023-03-31T07:27:54;5.60;;;3.95;;
53714;SDS011;39608;55.630;37.864;2023-03-31T07:32:58;4.85;;;3.90;;
53714;SDS011;39608;55.630;37.864;2023-03-31T07:38:00;5.53;;;4.25;;
53714;SDS011;39608;55.630;37.864;2023-03-31T07:43:03;5.75;;;4.13;;
53714;SDS011;39608;55.630;37.864;2023-03-31T07:48:07;6.35;;;3.83;;
53714;SDS011;39608;55.630;37.864;2023-03-31T07:53:12;7.70;;;3.40;;
53714;SDS011;39608;55.630;37.864;2023-03-31T07:58:14;4.95;;;3.65;;
53714;SDS011;39608;55.630;37.864;2023-03-31T08:03:18;5.50;;;3.42;;
53714;SDS011;39608;55.630;37.864;2023-03-31T08:08:21;5.22;;;3.75;;
53714;SDS011;39608;55.630;37.864;2023-03-31T08:13:25;4.53;;;3.25;;
53714;SDS011;39608;55.630;37.864;2023-03-31T08:18:28;10.88;;;3.28;;
53714;SDS011;39608;55.630;37.864;2023-03-31T08:23:30;5.78;;;3.15;;
53714;SDS011;39608;55.630;37.864;2023-03-31T08:28:33;5.10;;;3.25;;
53714;SDS011;39608;55.630;37.864;2023-03-31T08:33:36;10.25;;;3.33;;
53714;SDS011;39608;55.630;37.864;2023-03-31T08:38:39;4.38;;;3.45;;
53714;SDS011;39608;55.630;37.864;2023-03-31T08:43:45;5.53;;;3.53;;
53714;SDS011;39608;55.630;37.864;2023-03-31T08:48:51;7.60;;;4.28;;
53714;SDS011;39608;55.630;37.864;2023-03-31T08:53:56;14.17;;;4.00;;
53714;SDS011;39608;55.630;37.864;2023-03-31T08:59:03;6.93;;;4.20;;
53714;SDS011;39608;55.630;37.864;2023-03-31T09:04:12;6.30;;;3.65;;
53714;SDS011;39608;55.630;37.864;2023-03-31T09:09:24;6.18;;;3.67;;
53714;SDS011;39608;55.630;37.864;2023-03-31T09:14:36;14.30;;;4.65;;
53714;SDS011;39608;55.630;37.864;2023-03-31T09:19:47;9.95;;;3.78;;
53714;SDS011;39608;55.630;37.864;2023-03-31T09:24:54;4.93;;;3.80;;
53714;SDS011;39608;55.630;37.864;2023-03-31T09:30:02;8.82;;;3.63;;
53714;SDS011;39608;55.630;37.864;2023-03-31T09:35:17;6.60;;;4.60;;
53714;SDS011;39608;55.630;37.864;2023-03-31T09:40:21;5.88;;;3.67;;
53714;SDS011;39608;55.630;37.864;2023-03-31T09:45:25;11.90;;;4.00;;
53714;SDS011;39608;55.630;37.864;2023-03-31T09:50:31;8.32;;;4.30;;
53714;SDS011;39608;55.630;37.864;2023-03-31T09:55:39;9.40;;;4.63;;
53714;SDS011;39608;55.630;37.864;2023-03-31T10:00:57;5.95;;;4.07;;
53714;SDS011;39608;55.630;37.864;2023-03-31T10:06:03;7.07;;;4.10;;
53714;SDS011;39608;55.630;37.864;2023-03-31T10:11:10;4.72;;;3.63;;
53714;SDS011;39608;55.630;37.864;2023-03-31T10:16:14;6.07;;;3.70;;
53714;SDS011;39608;55.630;37.864;2023-03-31T10:21:24;5.75;;;3.60;;
53714;SDS011;39608;55.630;37.864;2023-03-31T10:26:28;16.10;;;4.53;;
53714;SDS011;39608;55.630;37.864;2023-03-31T10:31:33;6.55;;;4.40;;
53714;SDS011;39608;55.630;37.864;2023-03-31T10:36:38;7.67;;;4.03;;
53714;SDS011;39608;55.630;37.864;2023-03-31T10:41:49;4.90;;;3.70;;
53714;SDS011;39608;55.630;37.864;2023-03-31T10:46:53;7.40;;;3.83;;
53714;SDS011;39608;55.630;37.864;2023-03-31T10:51:57;7.15;;;4.43;;
53714;SDS011;39608;55.630;37.864;2023-03-31T10:57:00;8.15;;;3.90;;
53714;SDS011;39608;55.630;37.864;2023-03-31T11:07:44;8.55;;;4.38;;
53714;SDS011;39608;55.630;37.864;2023-03-31T11:12:56;5.32;;;3.90;;
53714;SDS011;39608;55.630;37.864;2023-03-31T11:18:04;5.78;;;3.95;;
53714;SDS011;39608;55.630;37.864;2023-03-31T11:23:20;6.60;;;4.00;;
53714;SDS011;39608;55.630;37.864;2023-03-31T11:28:47;6.40;;;4.28;;
53714;SDS011;39608;55.630;37.864;2023-03-31T11:34:07;6.65;;;4.78;;
53714;SDS011;39608;55.630;37.864;2023-03-31T11:39:26;6.65;;;4.25;;
53714;SDS011;39608;55.630;37.864;2023-03-31T11:49:42;7.90;;;4.18;;
53714;SDS011;39608;55.630;37.864;2023-03-31T11:54:52;6.78;;;4.68;;
53714;SDS011;39608;55.630;37.864;2023-03-31T12:05:13;8.43;;;4.03;;
53714;SDS011;39608;55.630;37.864;2023-03-31T12:10:20;9.35;;;4.10;;
53714;SDS011;39608;55.630;37.864;2023-03-31T12:15:23;7.28;;;4.28;;
53714;SDS011;39608;55.630;37.864;2023-03-31T12:20:32;8.45;;;4.97;;
53714;SDS011;39608;55.630;37.864;2023-03-31T12:25:41;7.67;;;4.33;;
53714;SDS011;39608;55.630;37.864;2023-03-31T12:30:50;8.25;;;5.25;;
53714;SDS011;39608;55.630;37.864;2023-03-31T12:35:56;9.43;;;4.82;;
53714;SDS011;39608;55.630;37.864;2023-03-31T12:41:13;8.07;;;4.80;;
53714;SDS011;39608;55.630;37.864;2023-03-31T12:51:39;6.72;;;4.97;;
53714;SDS011;39608;55.630;37.864;2023-03-31T12:57:03;6.82;;;5.65;;
53714;SDS011;39608;55.630;37.864;2023-03-31T13:02:22;10.73;;;5.65;;
53714;SDS011;39608;55.630;37.864;2023-03-31T13:07:33;9.65;;;5.78;;
53714;SDS011;39608;55.630;37.864;2023-03-31T13:12:39;6.55;;;5.00;;
53714;SDS011;39608;55.630;37.864;2023-03-31T13:17:41;11.50;;;5.78;;
53714;SDS011;39608;55.630;37.864;2023-03-31T13:22:58;9.00;;;6.40;;
53714;SDS011;39608;55.630;37.864;2023-03-31T13:33:32;9.50;;;5.88;;
53714;SDS011;39608;55.630;37.864;2023-03-31T13:38:41;9.23;;;6.53;;
53714;SDS011;39608;55.630;37.864;2023-03-31T13:44:00;9.57;;;6.07;;
53714;SDS011;39608;55.630;37.864;2023-03-31T13:49:33;10.95;;;6.68;;
53714;SDS011;39608;55.630;37.864;2023-03-31T13:55:00;13.50;;;6.60;;
53714;SDS011;39608;55.630;37.864;2023-03-31T14:00:16;9.10;;;5.97;;
53714;SDS011;39608;55.630;37.864;2023-03-31T14:05:28;10.40;;;6.18;;
53714;SDS011;39608;55.630;37.864;2023-03-31T14:10:34;9.35;;;6.38;;
53714;SDS011;39608;55.630;37.864;2023-03-31T14:15:41;9.80;;;6.05;;
53714;SDS011;39608;55.630;37.864;2023-03-31T14:20:54;9.93;;;6.30;;
53714;SDS011;39608;55.630;37.864;2023-03-31T14:26:09;10.23;;;6.10;;
53714;SDS011;39608;55.630;37.864;2023-03-31T14:31:20;9.23;;;6.22;;
53714;SDS011;39608;55.630;37.864;2023-03-31T14:36:27;11.93;;;6.95;;
53714;SDS011;39608;55.630;37.864;2023-03-31T14:41:38;9.20;;;6.15;;
53714;SDS011;39608;55.630;37.864;2023-03-31T14:46:42;13.30;;;6.75;;
53714;SDS011;39608;55.630;37.864;2023-03-31T14:51:44;13.18;;;6.97;;
53714;SDS011;39608;55.630;37.864;2023-03-31T14:56:48;8.90;;;6.47;;
53714;SDS011;39608;55.630;37.864;2023-03-31T15:01:54;12.57;;;7.65;;
53714;SDS011;39608;55.630;37.864;2023-03-31T15:06:58;10.23;;;6.35;;
53714;SDS011;39608;55.630;37.864;2023-03-31T15:12:02;12.48;;;7.18;;
53714;SDS011;39608;55.630;37.864;2023-03-31T15:17:15;10.35;;;6.22;;
53714;SDS011;39608;55.630;37.864;2023-03-31T15:22:20;14.50;;;6.88;;
53714;SDS011;39608;55.630;37.864;2023-03-31T15:27:28;8.60;;;6.22;;
53714;SDS011;39608;55.630;37.864;2023-03-31T15:32:35;7.30;;;5.07;;
53714;SDS011;39608;55.630;37.864;2023-03-31T15:37:40;9.68;;;4.93;;
53714;SDS011;39608;55.630;37.864;2023-03-31T15:42:44;11.65;;;5.13;;
53714;SDS011;39608;55.630;37.864;2023-03-31T15:47:48;9.38;;;5.43;;
53714;SDS011;39608;55.630;37.864;2023-03-31T15:52:52;7.70;;;4.63;;
53714;SDS011;39608;55.630;37.864;2023-03-31T15:57:57;7.13;;;4.40;;
53714;SDS011;39608;55.630;37.864;2023-03-31T16:03:02;9.90;;;5.45;;
53714;SDS011;39608;55.630;37.864;2023-03-31T16:08:13;9.45;;;4.93;;
53714;SDS011;39608;55.630;37.864;2023-03-31T16:13:22;6.75;;;4.88;;
53714;SDS011;39608;55.630;37.864;2023-03-31T16:18:26;10.25;;;5.75;;
53714;SDS011;39608;55.630;37.864;2023-03-31T16:23:34;7.90;;;6.00;;
53714;SDS011;39608;55.630;37.864;2023-03-31T16:28:41;10.35;;;5.28;;
53714;SDS011;39608;55.630;37.864;2023-03-31T16:33:54;9.23;;;5.40;;
53714;SDS011;39608;55.630;37.864;2023-03-31T16:39:00;8.57;;;5.55;;
53714;SDS011;39608;55.630;37.864;2023-03-31T16:44:04;8.45;;;5.40;;
53714;SDS011;39608;55.630;37.864;2023-03-31T16:49:08;9.68;;;5.60;;
53714;SDS011;39608;55.630;37.864;2023-03-31T16:54:09;10.90;;;5.68;;
53714;SDS011;39608;55.630;37.864;2023-03-31T16:59:14;10.88;;;6.18;;
53714;SDS011;39608;55.630;37.864;2023-03-31T17:04:17;10.50;;;6.32;;
53714;SDS011;39608;55.630;37.864;2023-03-31T17:09:21;9.18;;;5.63;;
53714;SDS011;39608;55.630;37.864;2023-03-31T17:14:23;9.60;;;5.78;;
53714;SDS011;39608;55.630;37.864;2023-03-31T17:19:28;10.63;;;6.38;;
53714;SDS011;39608;55.630;37.864;2023-03-31T17:24:29;8.18;;;5.55;;
53714;SDS011;39608;55.630;37.864;2023-03-31T17:29:31;10.30;;;5.90;;
53714;SDS011;39608;55.630;37.864;2023-03-31T17:34:35;9.75;;;5.90;;
53714;SDS011;39608;55.630;37.864;2023-03-31T17:39:38;10.90;;;6.93;;
53714;SDS011;39608;55.630;37.864;2023-03-31T17:44:40;10.35;;;6.60;;
53714;SDS011;39608;55.630;37.864;2023-03-31T17:49:44;9.93;;;5.95;;
53714;SDS011;39608;55.630;37.864;2023-03-31T17:54:46;21.35;;;13.85;;
53714;SDS011;39608;55.630;37.864;2023-03-31T17:59:48;15.48;;;9.65;;
53714;SDS011;39608;55.630;37.864;2023-03-31T18:04:51;12.63;;;7.20;;
53714;SDS011;39608;55.630;37.864;2023-03-31T18:09:53;11.88;;;6.75;;
53714;SDS011;39608;55.630;37.864;2023-03-31T18:14:57;8.63;;;5.70;;
53714;SDS011;39608;55.630;37.864;2023-03-31T18:20:01;9.40;;;5.03;;
53714;SDS011;39608;55.630;37.864;2023-03-31T18:25:04;8.15;;;4.72;;
53714;SDS011;39608;55.630;37.864;2023-03-31T18:30:11;6.45;;;4.60;;
53714;SDS011;39608;55.630;37.864;2023-03-31T18:35:15;8.65;;;5.10;;
53714;SDS011;39608;55.630;37.864;2023-03-31T18:40:19;8.82;;;5.85;;
53714;SDS011;39608;55.630;37.864;2023-03-31T18:45:27;11.40;;;6.95;;
53714;SDS011;39608;55.630;37.864;2023-03-31T18:50:31;12.43;;;8.23;;
53714;SDS011;39608;55.630;37.864;2023-03-31T18:55:33;12.95;;;8.70;;
53714;SDS011;39608;55.630;37.864;2023-03-31T19:00:35;11.85;;;8.63;;
53714;SDS011;39608;55.630;37.864;2023-03-31T19:05:38;15.15;;;9.13;;
53714;SDS011;39608;55.630;37.864;2023-03-31T19:10:41;20.05;;;8.93;;
53714;SDS011;39608;55.630;37.864;2023-03-31T19:15:43;13.57;;;8.45;;
53714;SDS011;39608;55.630;37.864;2023-03-31T19:20:47;16.98;;;10.25;;
53714;SDS011;39608;55.630;37.864;2023-03-31T19:25:50;15.98;;;9.77;;
53714;SDS011;39608;55.630;37.864;2023-03-31T19:30:53;14.27;;;8.75;;
53714;SDS011;39608;55.630;37.864;2023-03-31T19:35:58;13.60;;;7.72;;
53714;SDS011;39608;55.630;37.864;2023-03-31T19:41:00;14.55;;;8.63;;
53714;SDS011;39608;55.630;37.864;2023-03-31T19:46:03;11.15;;;7.70;;
53714;SDS011;39608;55.630;37.864;2023-03-31T19:51:07;11.25;;;7.20;;
53714;SDS011;39608;55.630;37.864;2023-03-31T19:56:11;11.38;;;7.65;;
53714;SDS011;39608;55.630;37.864;2023-03-31T20:01:16;13.18;;;8.60;;
53714;SDS011;39608;55.630;37.864;2023-03-31T20:06:21;15.63;;;8.68;;
53714;SDS011;39608;55.630;37.864;2023-03-31T20:11:24;13.65;;;8.98;;
53714;SDS011;39608;55.630;37.864;2023-03-31T20:16:27;12.27;;;8.10;;
53714;SDS011;39608;55.630;37.864;2023-03-31T20:21:32;14.40;;;7.78;;
53714;SDS011;39608;55.630;37.864;2023-03-31T20:26:36;12.35;;;7.53;;
53714;SDS011;39608;55.630;37.864;2023-03-31T20:31:38;13.05;;;8.38;;
53714;SDS011;39608;55.630;37.864;2023-03-31T20:36:43;9.93;;;6.93;;
53714;SDS011;39608;55.630;37.864;2023-03-31T20:41:48;10.57;;;6.50;;
53714;SDS011;39608;55.630;37.864;2023-03-31T20:46:51;9.43;;;6.60;;
53714;SDS011;39608;55.630;37.864;2023-03-31T20:51:59;12.80;;;7.60;;
53714;SDS011;39608;55.630;37.864;2023-03-31T20:57:01;11.05;;;6.03;;
53714;SDS011;39608;55.630;37.864;2023-03-31T21:02:05;8.25;;;6.10;;
53714;SDS011;39608;55.630;37.864;2023-03-31T21:07:09;9.85;;;6.05;;
53714;SDS011;39608;55.630;37.864;2023-03-31T21:12:14;10.63;;;6.25;;
53714;SDS011;39608;55.630;37.864;2023-03-31T21:17:16;8.68;;;6.35;;
53714;SDS011;39608;55.630;37.864;2023-03-31T21:22:19;8.40;;;6.35;;
53714;SDS011;39608;55.630;37.864;2023-03-31T21:27:21;13.40;;;6.47;;
53714;SDS011;39608;55.630;37.864;2023-03-31T21:32:23;11.02;;;6.47;;
53714;SDS011;39608;55.630;37.864;2023-03-31T21:37:31;16.15;;;5.97;;
53714;SDS011;39608;55.630;37.864;2023-03-31T21:42:33;12.32;;;6.55;;
53714;SDS011;39608;55.630;37.864;2023-03-31T21:47:38;9.02;;;5.78;;
53714;SDS011;39608;55.630;37.864;2023-03-31T21:52:41;9.38;;;6.30;;
53714;SDS011;39608;55.630;37.864;2023-03-31T21:57:43;11.52;;;7.47;;
53714;SDS011;39608;55.630;37.864;2023-03-31T22:02:48;10.18;;;6.95;;
53714;SDS011;39608;55.630;37.864;2023-03-31T22:07:52;10.65;;;7.45;;
53714;SDS011;39608;55.630;37.864;2023-03-31T22:12:54;15.15;;;8.02;;
53714;SDS011;39608;55.630;37.864;2023-03-31T22:17:56;11.35;;;7.15;;
53714;SDS011;39608;55.630;37.864;2023-03-31T22:22:59;16.80;;;8.35;;
53714;SDS011;39608;55.630;37.864;2023-03-31T22:28:01;15.25;;;8.25;;
53714;SDS011;39608;55.630;37.864;2023-03-31T22:33:04;25.58;;;14.73;;
53714;SDS011;39608;55.630;37.864;2023-03-31T22:38:09;19.30;;;11.65;;
53714;SDS011;39608;55.630;37.864;2023-03-31T22:43:12;20.83;;;13.88;;
53714;SDS011;39608;55.630;37.864;2023-03-31T22:48:15;25.25;;;12.80;;
53714;SDS011;39608;55.630;37.864;2023-03-31T22:53:18;21.08;;;12.85;;
53714;SDS011;39608;55.630;37.864;2023-03-31T22:58:21;22.63;;;12.68;;
53714;SDS011;39608;55.630;37.864;2023-03-31T23:03:23;18.92;;;11.90;;
53714;SDS011;39608;55.630;37.864;2023-03-31T23:08:27;20.48;;;13.13;;
53714;SDS011;39608;55.630;37.864;2023-03-31T23:13:29;26.42;;;14.38;;
53714;SDS011;39608;55.630;37.864;2023-03-31T23:18:32;22.63;;;13.18;;
53714;SDS011;39608;55.630;37.864;2023-03-31T23:23:36;26.60;;;15.20;;
53714;SDS011;39608;55.630;37.864;2023-03-31T23:28:38;32.40;;;16.75;;
53714;SDS011;39608;55.630;37.864;2023-03-31T23:33:40;31.70;;;17.38;;
53714;SDS011;39608;55.630;37.864;2023-03-31T23:38:44;30.75;;;16.95;;
53714;SDS011;39608;55.630;37.864;2023-03-31T23:43:46;36.83;;;18.35;;
53714;SDS011;39608;55.630;37.864;2023-03-31T23:48:50;42.58;;;20.63;;
53714;SDS011;39608;55.630;37.864;2023-03-31T23:53:53;46.65;;;18.98;;
53714;SDS011;39608;55.630;37.864;2023-03-31T23:58:55;44.00;;;19.17;;
